Time;durP1;ratioP1;P1;durP2;ratioP2;P2;SDS_P1;SDS_P2;PMS_P1;PMS_P2;Temp;Humidity;BMP_temperature;BMP_pressure;BME280_temperature;BME280_humidity;BME280_pressure;Samples;Min_cycle;Max_cycle;Signal;HPM_P1;HPM_P2
2023/09/26 00:01:05;;;;;;;4.55;2.40;;;;;;;;;;5047507;28;20445;-83
2023/09/26 00:03:31;;;;;;;2.78;2.40;;;;;;;;;;5041302;28;20040;-82
2023/09/26 00:05:56;;;;;;;3.28;2.50;;;;;;;;;;5035415;28;20034;-83
2023/09/26 00:08:22;;;;;;;4.88;2.17;;;;;;;;;;5051691;28;20510;-84
2023/09/26 00:10:48;;;;;;;4.60;2.10;;;;;;;;;;5045961;28;20414;-83
2023/09/26 00:13:14;;;;;;;3.97;2.30;;;;;;;;;;5039642;28;20037;-84
2023/09/26 00:15:40;;;;;;;3.25;2.25;;;;;;;;;;5047076;28;20118;-84
2023/09/26 00:18:06;;;;;;;2.92;2.28;;;;;;;;;;5049026;28;20034;-84
2023/09/26 00:20:34;;;;;;;3.75;2.13;;;;;;;;;;5041742;28;20040;-85
2023/09/26 00:23:00;;;;;;;3.58;2.30;;;;;;;;;;5038495;28;20039;-84
2023/09/26 00:25:25;;;;;;;3.38;2.20;;;;;;;;;;5050534;28;20493;-84
2023/09/26 00:27:52;;;;;;;3.92;2.20;;;;;;;;;;5043796;28;20037;-84
2023/09/26 00:30:19;;;;;;;2.85;2.03;;;;;;;;;;5050476;28;20048;-84
2023/09/26 00:32:44;;;;;;;3.85;1.90;;;;;;;;;;5048305;28;20047;-83
2023/09/26 00:35:11;;;;;;;2.85;1.92;;;;;;;;;;5046786;28;20175;-82
2023/09/26 00:37:38;;;;;;;2.88;2.10;;;;;;;;;;5041199;28;20099;-82
2023/09/26 00:40:10;;;;;;;2.40;1.83;;;;;;;;;;5043951;28;20056;-83
2023/09/26 00:42:36;;;;;;;4.95;3.10;;;;;;;;;;5048905;28;20411;-82
2023/09/26 00:45:02;;;;;;;4.45;2.58;;;;;;;;;;5044627;28;20029;-83
2023/09/26 00:47:34;;;;;;;3.67;2.17;;;;;;;;;;5038223;28;20041;-83
2023/09/26 00:50:03;;;;;;;2.90;2.25;;;;;;;;;;5051350;28;20095;-83
2023/09/26 00:52:28;;;;;;;4.00;2.00;;;;;;;;;;5044194;28;20147;-82
2023/09/26 00:54:55;;;;;;;3.88;2.13;;;;;;;;;;5040469;28;20055;-82
2023/09/26 00:57:21;;;;;;;3.20;2.00;;;;;;;;;;5045146;28;20437;-83
2023/09/26 00:59:47;;;;;;;3.28;2.10;;;;;;;;;;5048346;28;20120;-83
2023/09/26 01:02:13;;;;;;;2.83;1.92;;;;;;;;;;5042894;28;20034;-83
2023/09/26 01:04:39;;;;;;;3.17;2.00;;;;;;;;;;5037143;28;20075;-83
2023/09/26 01:07:05;;;;;;;2.90;2.13;;;;;;;;;;5050355;28;20037;-82
2023/09/26 01:09:30;;;;;;;2.67;1.90;;;;;;;;;;5044829;28;20029;-82
2023/09/26 01:11:56;;;;;;;2.88;1.90;;;;;;;;;;5036885;28;20037;-83
2023/09/26 01:14:21;;;;;;;4.70;1.90;;;;;;;;;;5045427;28;20454;-82
2023/09/26 01:16:54;;;;;;;3.08;1.80;;;;;;;;;;5045913;28;20033;-83
2023/09/26 01:19:20;;;;;;;;;;;;;;;;;;5040023;28;20029;-82
2023/09/26 01:21:46;;;;;;;3.10;2.00;;;;;;;;;;5042568;28;19920;-83
2023/09/26 01:24:11;;;;;;;3.72;1.90;;;;;;;;;;5047741;28;20063;-83
2023/09/26 01:26:37;;;;;;;2.30;1.90;;;;;;;;;;5041977;28;20071;-82
2023/09/26 01:29:04;;;;;;;3.85;1.75;;;;;;;;;;5037937;28;20068;-83
2023/09/26 01:31:32;;;;;;;3.33;1.90;;;;;;;;;;5043655;28;20120;-85
2023/09/26 01:33:58;;;;;;;2.70;2.00;;;;;;;;;;5044176;28;20025;-84
2023/09/26 01:36:26;;;;;;;3.65;2.33;;;;;;;;;;5039758;28;20036;-85
2023/09/26 01:38:52;;;;;;;2.40;1.92;;;;;;;;;;5041636;28;20032;-84
2023/09/26 01:41:18;;;;;;;4.50;2.00;;;;;;;;;;5029889;28;20037;-83
2023/09/26 01:43:43;;;;;;;4.72;1.75;;;;;;;;;;5022475;28;20030;-84
2023/09/26 01:46:09;;;;;;;3.75;1.95;;;;;;;;;;5037144;28;20657;-84
2023/09/26 01:48:35;;;;;;;3.17;2.15;;;;;;;;;;5059994;28;20045;-84
2023/09/26 01:51:05;;;;;;;2.85;1.63;;;;;;;;;;5042784;28;20034;-83
2023/09/26 01:53:31;;;;;;;5.32;2.05;;;;;;;;;;5021493;28;20479;-84
2023/09/26 01:55:59;;;;;;;3.83;1.80;;;;;;;;;;5043526;28;20461;-84
2023/09/26 01:58:25;;;;;;;2.50;2.00;;;;;;;;;;5041385;28;20032;-83
2023/09/26 02:00:50;;;;;;;1.95;1.70;;;;;;;;;;5040083;28;20453;-84
2023/09/26 02:03:16;;;;;;;4.05;1.90;;;;;;;;;;5034787;28;20033;-82
2023/09/26 02:05:41;;;;;;;5.25;1.70;;;;;;;;;;5048365;28;20652;-84
2023/09/26 02:08:07;;;;;;;4.43;2.03;;;;;;;;;;5042827;28;20037;-83
2023/09/26 02:10:33;;;;;;;11.90;1.80;;;;;;;;;;5037741;28;20407;-84
2023/09/26 02:12:59;;;;;;;2.58;1.90;;;;;;;;;;5044907;28;20033;-84
2023/09/26 02:15:25;;;;;;;1.88;1.67;;;;;;;;;;5045337;28;20388;-83
2023/09/26 02:17:51;;;;;;;2.97;1.80;;;;;;;;;;5040169;28;20038;-84
2023/09/26 02:20:18;;;;;;;2.00;1.80;;;;;;;;;;5042107;28;20040;-85
2023/09/26 02:22:49;;;;;;;3.88;2.10;;;;;;;;;;5050779;28;20040;-83
2023/09/26 02:25:16;;;;;;;3.28;2.20;;;;;;;;;;5045789;28;20055;-84
2023/09/26 02:27:43;;;;;;;3.42;2.08;;;;;;;;;;5038653;28;20029;-85
2023/09/26 02:30:10;;;;;;;2.50;1.80;;;;;;;;;;5047385;28;20083;-83
2023/09/26 02:32:36;;;;;;;2.90;2.17;;;;;;;;;;5045741;28;20033;-84
2023/09/26 02:35:03;;;;;;;3.20;2.20;;;;;;;;;;5040721;28;20464;-85
2023/09/26 02:37:29;;;;;;;5.40;2.10;;;;;;;;;;5025400;28;20502;-85
2023/09/26 02:39:54;;;;;;;3.60;1.90;;;;;;;;;;5047317;28;20029;-85
2023/09/26 02:42:20;;;;;;;4.15;2.20;;;;;;;;;;5042453;28;20045;-85
2023/09/26 02:44:45;;;;;;;3.40;2.10;;;;;;;;;;5035011;28;20037;-85
2023/09/26 02:47:12;;;;;;;2.10;1.80;;;;;;;;;;5047817;28;20118;-84
2023/09/26 02:49:37;;;;;;;4.63;2.03;;;;;;;;;;5043711;28;20072;-85
2023/09/26 02:52:03;;;;;;;2.25;1.90;;;;;;;;;;5036731;28;20130;-85
2023/09/26 02:54:29;;;;;;;4.00;2.15;;;;;;;;;;5042155;28;20037;-84
2023/09/26 02:56:57;;;;;;;3.53;2.10;;;;;;;;;;5027658;28;20041;-84
2023/09/26 02:59:22;;;;;;;4.85;2.97;;;;;;;;;;5038488;28;20033;-84
2023/09/26 03:01:49;;;;;;;4.65;3.22;;;;;;;;;;5036442;28;20036;-84
2023/09/26 03:04:15;;;;;;;5.28;2.78;;;;;;;;;;5033831;28;20025;-83
2023/09/26 03:06:40;;;;;;;4.20;2.42;;;;;;;;;;5028041;28;20503;-84
2023/09/26 03:09:07;;;;;;;3.08;2.13;;;;;;;;;;5036044;28;20030;-84
2023/09/26 03:11:33;;;;;;;3.22;2.35;;;;;;;;;;5014018;28;20048;-84
2023/09/26 03:13:58;;;;;;;2.97;2.28;;;;;;;;;;5045210;28;20032;-84
2023/09/26 03:16:24;;;;;;;4.07;3.10;;;;;;;;;;5041042;28;20498;-85
2023/09/26 03:18:54;;;;;;;6.75;4.35;;;;;;;;;;5039266;28;20055;-84
2023/09/26 03:21:20;;;;;;;5.28;3.67;;;;;;;;;;5047151;28;20037;-83
2023/09/26 03:23:46;;;;;;;3.13;2.40;;;;;;;;;;5041313;28;20025;-83
2023/09/26 03:26:13;;;;;;;3.97;2.20;;;;;;;;;;5036961;28;20106;-83
2023/09/26 03:28:39;;;;;;;3.30;2.35;;;;;;;;;;5045062;28;20056;-84
2023/09/26 03:31:05;;;;;;;3.30;2.35;;;;;;;;;;5026100;28;20032;-84
2023/09/26 03:33:32;;;;;;;2.53;2.00;;;;;;;;;;5038336;28;20037;-82
2023/09/26 03:35:59;;;;;;;2.80;2.25;;;;;;;;;;5040064;28;20652;-84
2023/09/26 03:38:25;;;;;;;2.90;2.20;;;;;;;;;;5046131;28;20487;-85
2023/09/26 03:41:00;;;;;;;2.63;2.10;;;;;;;;;;5040367;28;20025;-83
2023/09/26 03:43:26;;;;;;;2.55;2.10;;;;;;;;;;5034637;28;20561;-83
2023/09/26 03:46:02;;;;;;;3.38;2.00;;;;;;;;;;5049943;28;20026;-84
2023/09/26 03:48:28;;;;;;;4.75;2.30;;;;;;;;;;5043194;28;20080;-85
2023/09/26 03:50:54;;;;;;;4.35;2.60;;;;;;;;;;5037357;28;20072;-84
2023/09/26 03:53:19;;;;;;;8.45;2.53;;;;;;;;;;5042492;28;20498;-83
2023/09/26 03:55:53;;;;;;;3.75;2.67;;;;;;;;;;5045286;28;20036;-85
2023/09/26 03:58:19;;;;;;;4.03;2.38;;;;;;;;;;5038730;28;20131;-83
2023/09/26 04:00:44;;;;;;;5.53;2.72;;;;;;;;;;5037467;28;20518;-84
2023/09/26 04:03:10;;;;;;;6.45;2.60;;;;;;;;;;5046411;28;20454;-83
2023/09/26 04:05:35;;;;;;;3.30;2.35;;;;;;;;;;5041125;28;20398;-83
2023/09/26 04:08:01;;;;;;;3.92;2.30;;;;;;;;;;5033801;28;20036;-84
2023/09/26 04:10:26;;;;;;;4.38;2.65;;;;;;;;;;5044637;28;20060;-85
2023/09/26 04:12:51;;;;;;;3.10;2.30;;;;;;;;;;5043802;28;20064;-83
2023/09/26 04:15:17;;;;;;;5.78;2.60;;;;;;;;;;5037512;28;20055;-84
2023/09/26 04:17:42;;;;;;;4.85;2.78;;;;;;;;;;5037693;28;20043;-84
2023/09/26 04:20:19;;;;;;;4.97;2.85;;;;;;;;;;5044136;28;20039;-83
2023/09/26 04:22:45;;;;;;;6.45;3.58;;;;;;;;;;5046168;28;20049;-83
2023/09/26 04:25:11;;;;;;;5.68;2.67;;;;;;;;;;5036515;28;20041;-84
2023/09/26 04:27:37;;;;;;;2.88;2.10;;;;;;;;;;5049181;28;20115;-83
2023/09/26 04:30:04;;;;;;;3.95;2.55;;;;;;;;;;5044264;28;20080;-83
2023/09/26 04:32:30;;;;;;;5.78;2.70;;;;;;;;;;5036161;28;20037;-83
2023/09/26 04:34:55;;;;;;;4.90;2.10;;;;;;;;;;5042083;28;20127;-83
2023/09/26 04:37:21;;;;;;;5.25;2.20;;;;;;;;;;5041495;28;20036;-83
2023/09/26 04:39:46;;;;;;;3.42;1.75;;;;;;;;;;5038554;28;20038;-85
2023/09/26 04:42:12;;;;;;;3.88;1.73;;;;;;;;;;5035519;28;20045;-84
2023/09/26 04:44:37;;;;;;;2.05;1.40;;;;;;;;;;5048901;28;20040;-84
2023/09/26 04:47:03;;;;;;;1.95;1.20;;;;;;;;;;5024220;28;20645;-84
2023/09/26 04:49:28;;;;;;;2.03;1.40;;;;;;;;;;5036920;28;20042;-83
2023/09/26 04:51:54;;;;;;;3.55;1.67;;;;;;;;;;5041719;28;20036;-82
2023/09/26 04:54:19;;;;;;;4.10;1.88;;;;;;;;;;5046915;28;20056;-81
2023/09/26 04:56:45;;;;;;;2.95;1.58;;;;;;;;;;5042662;28;20676;-83
2023/09/26 04:59:11;;;;;;;3.72;1.70;;;;;;;;;;5040850;28;20452;-84
2023/09/26 05:01:36;;;;;;;2.55;1.67;;;;;;;;;;5050326;28;20029;-83
2023/09/26 05:04:02;;;;;;;3.92;1.60;;;;;;;;;;5044257;28;20034;-84
2023/09/26 05:06:29;;;;;;;3.33;1.90;;;;;;;;;;5018847;28;20567;-83
2023/09/26 05:08:54;;;;;;;2.85;1.70;;;;;;;;;;5052143;28;20029;-84
2023/09/26 05:11:20;;;;;;;2.10;1.70;;;;;;;;;;5051867;28;20442;-82
2023/09/26 05:13:45;;;;;;;3.55;1.92;;;;;;;;;;5046316;28;20033;-85
2023/09/26 05:16:13;;;;;;;2.60;2.10;;;;;;;;;;5047075;28;20075;-85
2023/09/26 05:18:38;;;;;;;5.55;2.53;;;;;;;;;;5050061;28;20046;-86
2023/09/26 05:21:08;;;;;;;2.55;2.00;;;;;;;;;;5048930;28;20049;-83
2023/09/26 05:23:33;;;;;;;16.90;2.35;;;;;;;;;;5042796;28;20067;-85
2023/09/26 05:26:07;;;;;;;2.67;2.00;;;;;;;;;;5054894;28;20394;-84
2023/09/26 05:28:32;;;;;;;3.58;2.63;;;;;;;;;;5062523;28;20044;-85
2023/09/26 05:30:58;;;;;;;2.90;2.50;;;;;;;;;;5046245;28;20045;-86
2023/09/26 05:33:23;;;;;;;2.47;2.10;;;;;;;;;;5043713;28;20044;-86
2023/09/26 05:35:49;;;;;;;2.70;2.50;;;;;;;;;;5032815;28;20040;-85
2023/09/26 05:38:14;;;;;;;3.45;2.60;;;;;;;;;;5021361;28;20062;-84
2023/09/26 05:40:40;;;;;;;2.35;1.95;;;;;;;;;;5047791;28;20073;-85
2023/09/26 05:43:05;;;;;;;2.72;2.10;;;;;;;;;;5057390;28;20410;-84
2023/09/26 05:45:31;;;;;;;3.97;2.30;;;;;;;;;;5051569;28;20039;-85
2023/09/26 05:47:56;;;;;;;4.70;2.30;;;;;;;;;;5045112;28;20041;-84
2023/09/26 05:50:22;;;;;;;4.05;2.40;;;;;;;;;;5046174;28;20032;-84
2023/09/26 05:52:47;;;;;;;4.25;2.25;;;;;;;;;;5052727;28;20550;-86
2023/09/26 05:55:13;;;;;;;8.82;2.65;;;;;;;;;;5044678;28;20033;-84
2023/09/26 05:57:38;;;;;;;4.05;2.70;;;;;;;;;;5043075;28;20155;-84
2023/09/26 06:00:10;;;;;;;4.00;2.35;;;;;;;;;;5055165;28;20064;-84
2023/09/26 06:02:37;;;;;;;7.05;4.60;;;;;;;;;;5048502;28;20033;-86
2023/09/26 06:05:02;;;;;;;5.45;3.50;;;;;;;;;;5040601;28;20034;-86
2023/09/26 06:07:28;;;;;;;4.82;3.20;;;;;;;;;;5050261;28;20055;-84
2023/09/26 06:09:53;;;;;;;4.78;3.50;;;;;;;;;;5049150;28;20037;-84
2023/09/26 06:12:18;;;;;;;3.90;2.80;;;;;;;;;;5043574;28;20041;-85
2023/09/26 06:14:46;;;;;;;4.40;2.97;;;;;;;;;;5042139;28;20083;-84
2023/09/26 06:17:12;;;;;;;6.22;2.80;;;;;;;;;;5051219;28;20525;-84
2023/09/26 06:19:39;;;;;;;4.15;2.63;;;;;;;;;;5046065;28;20033;-84
2023/09/26 06:22:04;;;;;;;4.88;2.88;;;;;;;;;;5040216;28;20041;-83
2023/09/26 06:24:30;;;;;;;5.78;2.45;;;;;;;;;;5046559;28;20034;-83
2023/09/26 06:26:55;;;;;;;3.42;2.70;;;;;;;;;;5048016;28;20158;-85
2023/09/26 06:29:21;;;;;;;3.92;2.33;;;;;;;;;;5038394;28;20042;-84
2023/09/26 06:31:46;;;;;;;3.45;2.65;;;;;;;;;;5047195;28;20140;-85
2023/09/26 06:34:12;;;;;;;3.67;2.60;;;;;;;;;;5047272;28;20026;-84
2023/09/26 06:36:37;;;;;;;9.10;2.70;;;;;;;;;;5044434;28;20041;-83
2023/09/26 06:39:03;;;;;;;5.40;2.60;;;;;;;;;;5032339;28;20088;-82
2023/09/26 06:41:28;;;;;;;4.45;2.70;;;;;;;;;;5053190;28;20124;-83
2023/09/26 06:43:54;;;;;;;4.35;2.70;;;;;;;;;;5048898;28;20032;-85
2023/09/26 06:46:19;;;;;;;5.70;2.67;;;;;;;;;;5039120;28;20033;-85
2023/09/26 06:48:45;;;;;;;3.53;2.40;;;;;;;;;;5039779;28;20068;-86
2023/09/26 06:51:11;;;;;;;4.00;2.63;;;;;;;;;;5044662;28;20041;-83
2023/09/26 06:53:37;;;;;;;3.17;2.40;;;;;;;;;;5041347;28;20046;-83
2023/09/26 06:56:07;;;;;;;3.78;2.40;;;;;;;;;;5035951;28;20486;-84
2023/09/26 06:58:34;;;;;;;3.95;2.60;;;;;;;;;;5054602;28;20033;-85
2023/09/26 07:00:59;;;;;;;5.60;2.70;;;;;;;;;;5045475;28;20041;-82
2023/09/26 07:03:28;;;;;;;4.07;2.55;;;;;;;;;;5041804;28;20136;-84
2023/09/26 07:05:55;;;;;;;3.25;2.30;;;;;;;;;;5047949;28;20056;-85
2023/09/26 07:08:21;;;;;;;3.42;2.40;;;;;;;;;;5044960;28;20029;-84
2023/09/26 07:10:46;;;;;;;4.30;2.20;;;;;;;;;;5081887;22;20106;-84
2023/09/26 07:13:15;;;;;;;4.22;2.00;;;;;;;;;;5061617;28;20102;-84
2023/09/26 07:15:41;;;;;;;3.33;2.22;;;;;;;;;;5064929;28;20119;-84
2023/09/26 07:18:09;;;;;;;3.22;2.30;;;;;;;;;;5064867;28;20112;-85
2023/09/26 07:20:38;;;;;;;3.95;2.10;;;;;;;;;;5063930;28;20041;-84
2023/09/26 07:23:03;;;;;;;4.90;2.53;;;;;;;;;;5063263;28;20044;-84
2023/09/26 07:25:29;;;;;;;4.45;2.30;;;;;;;;;;5061843;28;20025;-84
2023/09/26 07:27:55;;;;;;;4.15;2.50;;;;;;;;;;5064433;28;20152;-84
2023/09/26 07:30:21;;;;;;;3.90;2.10;;;;;;;;;;5047255;28;20059;-83
2023/09/26 07:32:46;;;;;;;5.25;2.20;;;;;;;;;;5065401;28;20029;-83
2023/09/26 07:35:12;;;;;;;3.17;2.20;;;;;;;;;;5064080;28;20039;-83
2023/09/26 07:37:37;;;;;;;4.82;2.70;;;;;;;;;;5064549;28;20108;-83
2023/09/26 07:40:05;;;;;;;2.95;2.28;;;;;;;;;;5061169;28;20502;-81
2023/09/26 07:42:32;;;;;;;3.80;2.30;;;;;;;;;;5068801;28;20048;-82
2023/09/26 07:44:58;;;;;;;4.10;2.50;;;;;;;;;;5048817;28;20053;-82
2023/09/26 07:47:24;;;;;;;5.22;2.42;;;;;;;;;;5054633;28;20043;-84
2023/09/26 07:49:49;;;;;;;2.88;2.20;;;;;;;;;;5064356;28;20033;-84
2023/09/26 07:52:15;;;;;;;4.25;2.40;;;;;;;;;;5063508;28;20577;-84
2023/09/26 07:54:40;;;;;;;3.53;2.50;;;;;;;;;;5064253;28;20040;-84
2023/09/26 07:57:06;;;;;;;3.72;2.60;;;;;;;;;;5061230;28;20071;-85
2023/09/26 07:59:31;;;;;;;4.03;2.70;;;;;;;;;;5064011;28;20076;-85
2023/09/26 08:01:57;;;;;;;3.85;2.70;;;;;;;;;;5063982;28;20707;-83
2023/09/26 08:04:23;;;;;;;4.80;2.75;;;;;;;;;;5065441;28;20036;-84
2023/09/26 08:06:48;;;;;;;3.85;2.83;;;;;;;;;;5065775;28;20033;-83
2023/09/26 08:09:15;;;;;;;3.83;2.65;;;;;;;;;;5063443;28;20033;-85
2023/09/26 08:11:41;;;;;;;3.92;2.60;;;;;;;;;;5064917;28;20051;-84
2023/09/26 08:14:07;;;;;;;3.78;2.67;;;;;;;;;;5065066;28;20041;-83
2023/09/26 08:16:33;;;;;;;6.28;3.10;;;;;;;;;;5065350;28;20119;-84
2023/09/26 08:18:58;;;;;;;4.43;2.78;;;;;;;;;;5066144;28;20094;-84
2023/09/26 08:21:25;;;;;;;4.93;2.90;;;;;;;;;;5064725;28;20068;-83
2023/09/26 08:23:50;;;;;;;3.38;2.35;;;;;;;;;;5065543;28;20552;-84
2023/09/26 08:26:16;;;;;;;4.88;2.80;;;;;;;;;;5064398;28;20044;-84
2023/09/26 08:28:41;;;;;;;4.07;2.58;;;;;;;;;;5068588;28;20056;-83
2023/09/26 08:31:13;;;;;;;4.15;2.67;;;;;;;;;;5069573;28;20068;-85
2023/09/26 08:33:39;;;;;;;4.07;2.42;;;;;;;;;;5067775;28;20045;-85
2023/09/26 08:36:19;;;;;;;3.83;2.90;;;;;;;;;;5068872;28;20079;-84
2023/09/26 08:38:49;;;;;;;4.65;2.53;;;;;;;;;;5069337;28;20096;-84
2023/09/26 08:41:19;;;;;;;4.40;2.30;;;;;;;;;;5068943;28;20041;-85
2023/09/26 08:43:46;;;;;;;5.18;2.75;;;;;;;;;;5066871;28;20070;-85
2023/09/26 08:46:12;;;;;;;4.03;2.22;;;;;;;;;;5067354;28;20044;-82
2023/09/26 08:48:42;;;;;;;3.80;2.42;;;;;;;;;;5059185;28;20029;-85
2023/09/26 08:51:07;;;;;;;5.03;2.95;;;;;;;;;;5066531;28;20033;-84
2023/09/26 08:53:33;;;;;;;3.40;2.63;;;;;;;;;;5066748;28;20029;-85
2023/09/26 08:55:58;;;;;;;4.38;2.63;;;;;;;;;;5067112;28;20498;-84
2023/09/26 08:58:25;;;;;;;4.90;2.90;;;;;;;;;;5064461;28;20025;-85
2023/09/26 09:00:51;;;;;;;3.40;2.60;;;;;;;;;;5066638;28;20037;-83
2023/09/26 09:03:16;;;;;;;4.80;2.42;;;;;;;;;;5065434;28;20039;-84
2023/09/26 09:05:42;;;;;;;3.38;2.47;;;;;;;;;;5056239;28;20576;-84
2023/09/26 09:08:08;;;;;;;4.95;2.65;;;;;;;;;;5052790;28;20037;-85
2023/09/26 09:10:56;;;;;;;5.22;2.63;;;;;;;;;;5059893;28;20068;-85
2023/09/26 09:13:43;;;;;;;5.40;2.55;;;;;;;;;;5062728;28;20439;-85
2023/09/26 09:16:13;;;;;;;4.15;2.67;;;;;;;;;;5067092;28;20044;-85
2023/09/26 09:18:44;;;;;;;4.80;2.78;;;;;;;;;;5068324;28;20033;-85
2023/09/26 09:21:32;;;;;;;3.63;2.50;;;;;;;;;;5069304;28;20333;-85
2023/09/26 09:24:00;;;;;;;4.65;2.65;;;;;;;;;;5068977;28;20036;-86
2023/09/26 09:26:30;;;;;;;5.13;3.05;;;;;;;;;;5070574;28;20036;-85
2023/09/26 09:28:58;;;;;;;5.93;3.00;;;;;;;;;;5065505;28;20035;-86
2023/09/26 09:31:26;;;;;;;3.97;2.65;;;;;;;;;;5071305;28;20055;-86
2023/09/26 09:33:52;;;;;;;6.63;3.10;;;;;;;;;;5069834;28;20032;-86
2023/09/26 09:36:19;;;;;;;4.72;2.58;;;;;;;;;;5069953;28;20060;-86
2023/09/26 09:38:45;;;;;;;4.57;2.70;;;;;;;;;;5069620;28;20036;-85
2023/09/26 09:41:10;;;;;;;3.90;2.70;;;;;;;;;;5069082;28;20264;-85
2023/09/26 09:43:37;;;;;;;6.30;2.60;;;;;;;;;;5069129;28;20025;-84
2023/09/26 09:46:10;;;;;;;3.53;2.65;;;;;;;;;;5069178;28;20532;-86
2023/09/26 09:48:42;;;;;;;4.70;3.20;;;;;;;;;;5069654;28;20037;-85
2023/09/26 09:51:10;;;;;;;6.63;3.45;;;;;;;;;;5066100;28;20065;-86
2023/09/26 09:53:35;;;;;;;3.95;3.40;;;;;;;;;;5069617;28;20127;-84
2023/09/26 09:56:06;;;;;;;3.95;3.05;;;;;;;;;;5066825;28;20096;-84
2023/09/26 09:58:33;;;;;;;4.65;3.25;;;;;;;;;;5069789;28;20032;-85
2023/09/26 10:01:00;;;;;;;6.15;3.00;;;;;;;;;;5069773;28;20036;-85
2023/09/26 10:03:26;;;;;;;5.55;3.70;;;;;;;;;;5068831;28;20097;-87
2023/09/26 10:05:52;;;;;;;5.28;3.17;;;;;;;;;;5068915;28;20045;-84
2023/09/26 10:08:19;;;;;;;5.45;3.03;;;;;;;;;;5062962;28;20486;-85
2023/09/26 10:10:45;;;;;;;4.78;3.30;;;;;;;;;;5065153;28;20055;-86
2023/09/26 10:13:12;;;;;;;4.78;3.22;;;;;;;;;;5069476;28;20041;-86
2023/09/26 10:16:06;;;;;;;6.35;3.28;;;;;;;;;;5067317;28;20410;-85
2023/09/26 10:18:32;;;;;;;;;;;;;;;;;;5064498;28;20141;-82
2023/09/26 10:20:58;;;;;;;4.03;3.25;;;;;;;;;;5058625;28;19948;-86
2023/09/26 10:23:23;;;;;;;4.68;3.35;;;;;;;;;;5052483;28;20114;-84
2023/09/26 10:25:49;;;;;;;5.90;3.50;;;;;;;;;;5057439;28;20035;-85
2023/09/26 10:28:16;;;;;;;6.85;3.70;;;;;;;;;;5067077;28;20029;-85
2023/09/26 10:30:44;;;;;;;4.47;3.30;;;;;;;;;;5065614;28;20052;-84
2023/09/26 10:33:10;;;;;;;6.88;3.60;;;;;;;;;;5062444;28;20045;-84
2023/09/26 10:35:43;;;;;;;8.07;3.47;;;;;;;;;;5058811;28;20068;-83
2023/09/26 10:38:20;;;;;;;5.25;3.70;;;;;;;;;;5066176;28;20036;-85
2023/09/26 10:40:47;;;;;;;5.30;3.90;;;;;;;;;;5062824;28;20041;-84
2023/09/26 10:43:12;;;;;;;7.40;3.83;;;;;;;;;;5064034;28;20037;-81
2023/09/26 10:45:43;;;;;;;5.10;3.58;;;;;;;;;;5063096;28;20041;-84
2023/09/26 10:48:08;;;;;;;5.13;3.40;;;;;;;;;;5064035;28;20032;-85
2023/09/26 10:50:34;;;;;;;4.57;3.60;;;;;;;;;;5063116;28;20028;-85
2023/09/26 10:53:00;;;;;;;5.45;3.42;;;;;;;;;;5064877;28;20060;-84
2023/09/26 10:55:25;;;;;;;4.72;3.35;;;;;;;;;;5064335;28;20101;-86
2023/09/26 10:57:51;;;;;;;5.13;3.47;;;;;;;;;;5046720;28;20067;-85
2023/09/26 11:00:17;;;;;;;5.93;3.58;;;;;;;;;;5060129;28;20483;-85
2023/09/26 11:02:46;;;;;;;6.88;3.85;;;;;;;;;;5064848;28;20041;-83
2023/09/26 11:05:13;;;;;;;5.15;3.45;;;;;;;;;;5061771;28;20442;-85
2023/09/26 11:07:40;;;;;;;5.25;3.40;;;;;;;;;;5062142;28;20017;-82
2023/09/26 11:10:10;;;;;;;6.90;3.33;;;;;;;;;;5061270;28;20041;-84
2023/09/26 11:12:36;;;;;;;6.30;3.28;;;;;;;;;;5062123;28;20036;-85
2023/09/26 11:15:03;;;;;;;6.72;3.70;;;;;;;;;;5063222;28;20037;-84
2023/09/26 11:17:29;;;;;;;8.80;3.40;;;;;;;;;;5062972;28;20028;-82
2023/09/26 11:19:58;;;;;;;6.53;3.15;;;;;;;;;;5065215;28;20017;-84
2023/09/26 11:22:25;;;;;;;4.85;3.38;;;;;;;;;;5061961;28;20032;-83
2023/09/26 11:25:07;;;;;;;5.38;3.08;;;;;;;;;;5062926;28;20045;-81
2023/09/26 11:27:41;;;;;;;4.70;3.25;;;;;;;;;;5062424;28;20044;-82
2023/09/26 11:30:14;;;;;;;4.30;3.45;;;;;;;;;;5061620;28;20078;-84
2023/09/26 11:32:41;;;;;;;5.47;3.38;;;;;;;;;;5060501;28;20059;-82
2023/09/26 11:35:08;;;;;;;4.25;3.33;;;;;;;;;;5061413;28;20041;-85
2023/09/26 11:37:36;;;;;;;4.35;3.30;;;;;;;;;;5062670;28;20067;-85
2023/09/26 11:40:06;;;;;;;4.22;3.08;;;;;;;;;;5064075;28;20044;-84
2023/09/26 11:42:40;;;;;;;5.35;3.00;;;;;;;;;;5063919;28;20690;-87
2023/09/26 11:45:06;;;;;;;4.88;3.10;;;;;;;;;;5058181;28;20041;-86
2023/09/26 11:47:32;;;;;;;5.57;3.25;;;;;;;;;;5062874;28;20045;-82
2023/09/26 11:49:57;;;;;;;3.80;3.00;;;;;;;;;;5064893;28;20021;-84
2023/09/26 11:52:23;;;;;;;4.13;3.30;;;;;;;;;;5065190;28;20029;-85
2023/09/26 11:54:50;;;;;;;5.50;3.10;;;;;;;;;;5063075;28;20091;-83
2023/09/26 11:57:16;;;;;;;7.60;3.47;;;;;;;;;;5062433;28;20040;-84
2023/09/26 11:59:42;;;;;;;4.75;2.90;;;;;;;;;;5064465;28;20098;-83
2023/09/26 12:02:08;;;;;;;6.32;3.10;;;;;;;;;;5063081;28;20033;-84
2023/09/26 12:04:34;;;;;;;4.65;3.40;;;;;;;;;;5068566;28;20041;-86
2023/09/26 12:07:00;;;;;;;5.18;3.28;;;;;;;;;;5069009;28;20060;-85
2023/09/26 12:09:28;;;;;;;4.32;3.20;;;;;;;;;;5067166;28;20036;-85
2023/09/26 12:11:53;;;;;;;4.43;2.80;;;;;;;;;;5049270;28;20033;-85
2023/09/26 12:14:19;;;;;;;4.53;2.90;;;;;;;;;;5068213;28;20086;-85
2023/09/26 12:16:50;;;;;;;4.88;3.20;;;;;;;;;;5067499;28;20063;-83
2023/09/26 12:19:16;;;;;;;3.92;3.13;;;;;;;;;;5066116;28;20041;-85
2023/09/26 12:21:41;;;;;;;4.03;3.00;;;;;;;;;;5068966;28;20055;-85
2023/09/26 12:24:07;;;;;;;6.78;3.05;;;;;;;;;;5067587;28;20044;-85
2023/09/26 12:26:32;;;;;;;4.47;2.90;;;;;;;;;;5067291;28;20056;-84
2023/09/26 12:28:58;;;;;;;5.82;2.95;;;;;;;;;;5069314;28;20040;-85
2023/09/26 12:31:23;;;;;;;4.43;2.97;;;;;;;;;;5069043;28;20076;-84
2023/09/26 12:33:49;;;;;;;4.13;2.70;;;;;;;;;;5068319;28;20045;-85
2023/09/26 12:36:14;;;;;;;4.35;2.65;;;;;;;;;;5069656;28;20039;-85
2023/09/26 12:38:41;;;;;;;4.28;2.90;;;;;;;;;;5067844;28;20033;-83
2023/09/26 12:41:07;;;;;;;13.18;3.00;;;;;;;;;;5063748;28;20503;-85
2023/09/26 12:43:33;;;;;;;3.55;2.80;;;;;;;;;;5057492;28;20033;-82
2023/09/26 12:45:58;;;;;;;4.18;2.65;;;;;;;;;;5045247;28;20056;-83
2023/09/26 12:48:24;;;;;;;4.30;3.00;;;;;;;;;;5062673;28;20033;-83
2023/09/26 12:50:49;;;;;;;3.95;2.70;;;;;;;;;;5066351;28;20033;-84
2023/09/26 12:53:15;;;;;;;4.65;2.80;;;;;;;;;;5065925;28;20037;-84
2023/09/26 12:55:40;;;;;;;4.93;2.90;;;;;;;;;;5067246;28;20055;-86
2023/09/26 12:58:06;;;;;;;4.32;2.67;;;;;;;;;;5068400;28;20045;-86
2023/09/26 13:00:34;;;;;;;3.88;2.60;;;;;;;;;;5065788;28;20063;-85
2023/09/26 13:03:00;;;;;;;3.80;2.50;;;;;;;;;;5067392;28;20044;-85
2023/09/26 13:05:25;;;;;;;6.88;2.70;;;;;;;;;;5064462;28;20033;-85
2023/09/26 13:07:51;;;;;;;5.15;3.17;;;;;;;;;;5066857;28;20053;-85
2023/09/26 13:10:16;;;;;;;9.55;2.80;;;;;;;;;;5064393;28;20044;-85
2023/09/26 13:12:42;;;;;;;6.68;3.05;;;;;;;;;;5066642;28;20074;-84
2023/09/26 13:15:08;;;;;;;5.05;2.63;;;;;;;;;;5064984;28;20037;-86
2023/09/26 13:17:34;;;;;;;3.47;2.40;;;;;;;;;;5064962;28;20025;-86
2023/09/26 13:20:00;;;;;;;4.03;2.70;;;;;;;;;;5065704;28;20506;-85
2023/09/26 13:22:25;;;;;;;4.57;2.75;;;;;;;;;;5063018;28;20048;-84
2023/09/26 13:24:51;;;;;;;5.45;2.67;;;;;;;;;;5064481;28;20290;-86
2023/09/26 13:27:16;;;;;;;9.85;3.05;;;;;;;;;;5065175;28;20548;-84
2023/09/26 13:29:42;;;;;;;5.05;2.50;;;;;;;;;;5063394;28;20049;-86
2023/09/26 13:32:08;;;;;;;4.65;2.42;;;;;;;;;;5066023;28;20048;-86
2023/09/26 13:34:33;;;;;;;6.25;2.60;;;;;;;;;;5065163;28;20040;-86
2023/09/26 13:36:59;;;;;;;3.65;2.38;;;;;;;;;;5064867;28;20052;-85
2023/09/26 13:39:25;;;;;;;6.03;2.25;;;;;;;;;;5064654;28;20037;-86
2023/09/26 13:41:51;;;;;;;2.88;2.28;;;;;;;;;;5065785;28;20067;-83
2023/09/26 13:44:16;;;;;;;3.58;2.60;;;;;;;;;;5062275;28;20522;-81
2023/09/26 13:46:42;;;;;;;4.28;2.85;;;;;;;;;;5056957;28;20048;-83
2023/09/26 13:49:08;;;;;;;6.43;2.20;;;;;;;;;;5063372;28;20025;-84
2023/09/26 13:51:34;;;;;;;5.80;2.38;;;;;;;;;;5066368;28;20085;-86
2023/09/26 13:53:59;;;;;;;5.35;2.65;;;;;;;;;;5065710;28;20067;-86
2023/09/26 13:56:25;;;;;;;3.38;2.33;;;;;;;;;;5065877;28;20041;-83
2023/09/26 13:58:50;;;;;;;5.60;2.58;;;;;;;;;;5064068;28;20025;-85
2023/09/26 14:01:16;;;;;;;3.72;2.30;;;;;;;;;;5063877;28;20072;-85
2023/09/26 14:03:42;;;;;;;8.25;2.50;;;;;;;;;;5064231;28;20079;-86
2023/09/26 14:06:07;;;;;;;5.82;2.30;;;;;;;;;;5064954;28;20048;-87
2023/09/26 14:08:33;;;;;;;4.97;2.72;;;;;;;;;;5064140;28;20017;-83
2023/09/26 14:10:58;;;;;;;4.80;2.25;;;;;;;;;;5057926;28;20053;-86
2023/09/26 14:13:24;;;;;;;3.35;2.10;;;;;;;;;;5055193;28;20028;-84
2023/09/26 14:15:53;;;;;;;4.47;2.20;;;;;;;;;;5054998;28;20072;-83
2023/09/26 14:18:19;;;;;;;5.80;2.70;;;;;;;;;;5057907;28;20044;-84
2023/09/26 14:20:51;;;;;;;5.55;2.30;;;;;;;;;;5060011;28;20029;-83
2023/09/26 14:23:24;;;;;;;5.05;2.30;;;;;;;;;;5063173;28;20119;-82
2023/09/26 14:25:56;;;;;;;3.03;2.35;;;;;;;;;;5056983;28;20494;-83
2023/09/26 14:28:22;;;;;;;4.50;2.35;;;;;;;;;;5060634;28;20061;-82
2023/09/26 14:30:48;;;;;;;5.82;2.55;;;;;;;;;;5059844;28;20061;-84
2023/09/26 14:33:15;;;;;;;7.72;2.72;;;;;;;;;;5062007;28;20082;-83
2023/09/26 14:35:43;;;;;;;5.25;2.40;;;;;;;;;;5061352;28;20065;-83
2023/09/26 14:38:09;;;;;;;4.13;2.83;;;;;;;;;;5059999;28;20112;-83
2023/09/26 14:40:34;;;;;;;3.55;2.50;;;;;;;;;;5060723;28;20079;-83